createdAt,value
2019-02-09T00:01:20.750Z,84.32
2019-02-09T00:03:57.804Z,84.40
2019-02-09T00:06:34.625Z,84.47
2019-02-09T00:09:08.682Z,84.53
2019-02-09T00:11:42.304Z,84.58
2019-02-09T00:14:13.043Z,84.62
2019-02-09T00:16:54.876Z,84.69
2019-02-09T00:19:40.817Z,84.71
2019-02-09T00:22:39.474Z,84.73
2019-02-09T00:26:09.858Z,84.77
2019-02-09T00:27:35.995Z,84.77
2019-02-09T00:30:07.509Z,84.76
2019-02-09T00:32:40.343Z,84.73
2019-02-09T00:35:22.512Z,84.72
2019-02-09T00:37:57.834Z,84.75
2019-02-09T00:40:42.118Z,84.75
2019-02-09T00:43:09.919Z,84.68
2019-02-09T00:45:40.275Z,84.63
2019-02-09T00:48:12.640Z,84.40
2019-02-09T00:50:51.386Z,84.36
2019-02-09T00:53:35.710Z,84.33
2019-02-09T00:56:09.384Z,84.36
2019-02-09T00:58:40.770Z,84.17
2019-02-09T01:01:11.120Z,84.16
2019-02-09T01:03:55.574Z,84.15
2019-02-09T01:06:25.491Z,84.11
2019-02-09T01:08:57.665Z,84.04
2019-02-09T01:11:28.283Z,84.03
2019-02-09T01:13:58.860Z,84.00
2019-02-09T01:16:39.251Z,84.00
2019-02-09T01:19:17.470Z,84.06
2019-02-09T01:21:51.433Z,84.12
2019-02-09T01:24:24.168Z,84.19
2019-02-09T01:26:54.798Z,84.25
2019-02-09T01:29:28.069Z,84.29
2019-02-09T01:32:01.918Z,84.35
2019-02-09T01:34:35.225Z,84.35
2019-02-09T01:37:09.988Z,84.42
2019-02-09T01:39:40.309Z,84.46
2019-02-09T01:42:12.189Z,84.49
2019-02-09T01:44:47.288Z,84.48
2019-02-09T01:47:17.832Z,84.42
2019-02-09T01:49:48.154Z,84.37
2019-02-09T01:52:20.651Z,84.32
2019-02-09T01:54:51.007Z,84.36
2019-02-09T01:57:21.248Z,84.39
2019-02-09T01:59:51.636Z,84.42
2019-02-09T02:02:26.861Z,84.43
2019-02-09T02:05:14.667Z,84.45
2019-02-09T02:07:39.495Z,84.49
2019-02-09T02:10:14.694Z,84.50
2019-02-09T02:12:45.109Z,84.48
2019-02-09T02:15:20.080Z,84.46
2019-02-09T02:17:51.116Z,84.51
2019-02-09T02:20:24.572Z,84.48
2019-02-09T02:22:55.093Z,84.43
2019-02-09T02:25:25.677Z,84.44
2019-02-09T02:28:07.747Z,84.46
2019-02-09T02:30:39.404Z,84.30
2019-02-09T02:33:10.703Z,84.21
2019-02-09T02:35:42.695Z,84.10
2019-02-09T02:38:14.504Z,83.94
2019-02-09T02:40:47.269Z,83.75
2019-02-09T02:43:17.919Z,83.72
2019-02-09T02:45:51.495Z,83.18
2019-02-09T02:48:22.087Z,83.18
2019-02-09T02:50:55.366Z,82.88
2019-02-09T02:53:27.395Z,81.61
2019-02-09T02:56:01.321Z,80.76
2019-02-09T02:58:33.943Z,78.79
2019-02-09T03:01:05.718Z,77.95
2019-02-09T03:03:36.292Z,78.20
2019-02-09T03:06:18.866Z,78.00
2019-02-09T03:08:47.631Z,76.82
2019-02-09T03:11:19.769Z,76.17
2019-02-09T03:13:51.182Z,75.96
2019-02-09T03:16:22.842Z,75.49
2019-02-09T03:18:55.397Z,75.69
2019-02-09T03:21:40.590Z,75.78
2019-02-09T03:24:09.336Z,75.39
2019-02-09T03:26:39.906Z,75.52
2019-02-09T03:29:10.223Z,75.01
2019-02-09T03:31:44.471Z,74.02
2019-02-09T03:34:19.101Z,73.70
2019-02-09T03:36:52.234Z,74.09
2019-02-09T03:39:25.607Z,74.21
2019-02-09T03:41:56.931Z,73.49
2019-02-09T03:44:27.728Z,73.43
2019-02-09T03:46:58.418Z,73.88
2019-02-09T03:49:29.090Z,73.36
2019-02-09T03:51:59.479Z,73.50
2019-02-09T03:54:30.104Z,73.78
2019-02-09T03:57:02.022Z,73.53
2019-02-09T03:59:32.648Z,73.33
2019-02-09T04:02:10.967Z,72.94
2019-02-09T04:04:41.285Z,72.97
2019-02-09T04:07:11.825Z,73.36
2019-02-09T04:09:45.510Z,73.44
2019-02-09T04:12:15.886Z,73.94
2019-02-09T04:14:46.273Z,73.74
2019-02-09T04:17:18.095Z,72.61
2019-02-09T04:19:51.190Z,72.33
2019-02-09T04:22:27.070Z,73.73
2019-02-09T04:25:12.147Z,76.69
2019-02-09T04:27:45.491Z,78.43
2019-02-09T04:30:19.085Z,79.95
2019-02-09T04:32:49.450Z,80.85
2019-02-09T04:35:21.687Z,81.50
2019-02-09T04:37:56.464Z,81.90
2019-02-09T04:40:31.467Z,82.21
2019-02-09T04:43:01.832Z,82.51
2019-02-09T04:45:36.659Z,82.78
2019-02-09T04:48:11.025Z,83.10
2019-02-09T04:50:45.539Z,83.25
2019-02-09T04:53:15.933Z,83.38
2019-02-09T04:55:48.478Z,83.37
2019-02-09T04:58:18.805Z,83.54
2019-02-09T05:00:50.769Z,83.79
2019-02-09T05:03:22.658Z,83.90
2019-02-09T05:05:53.741Z,83.81
2019-02-09T05:08:28.121Z,83.86
2019-02-09T05:11:02.394Z,83.86
2019-02-09T05:13:34.812Z,83.94
2019-02-09T05:16:07.137Z,83.96
2019-02-09T05:18:37.430Z,83.85
2019-02-09T05:21:09.418Z,83.79
2019-02-09T05:23:41.241Z,83.62
2019-02-09T05:26:14.691Z,83.53
2019-02-09T05:28:45.233Z,83.32
2019-02-09T05:31:22.889Z,83.01
2019-02-09T05:33:57.457Z,82.95
2019-02-09T05:36:24.746Z,82.79
2019-02-09T05:38:56.039Z,82.58
2019-02-09T05:41:29.358Z,82.39
2019-02-09T05:44:00.396Z,82.20
2019-02-09T05:46:33.668Z,81.69
2019-02-09T05:49:04.542Z,80.73
2019-02-09T05:51:35.534Z,79.45
2019-02-09T05:54:07.040Z,78.94
2019-02-09T05:56:37.562Z,78.34
2019-02-09T05:59:07.946Z,78.03
2019-02-09T06:01:39.842Z,77.07
2019-02-09T06:04:15.104Z,76.38
2019-02-09T06:06:45.020Z,75.22
2019-02-09T06:09:14.540Z,74.70
2019-02-09T06:11:46.591Z,74.52
2019-02-09T06:14:18.624Z,74.02
2019-02-09T06:16:56.926Z,73.83
2019-02-09T06:19:29.857Z,73.06
2019-02-09T06:22:04.169Z,72.21
2019-02-09T06:24:34.620Z,72.58
2019-02-09T06:27:05.250Z,72.19
2019-02-09T06:29:43.358Z,72.60
2019-02-09T06:32:23.531Z,72.41
2019-02-09T06:34:56.639Z,71.49
2019-02-09T06:37:26.940Z,71.80
2019-02-09T06:40:01.001Z,71.71
2019-02-09T06:42:31.682Z,72.16
2019-02-09T06:45:02.114Z,72.56
2019-02-09T06:47:36.551Z,73.17
2019-02-09T06:50:11.045Z,73.88
2019-02-09T06:52:41.634Z,73.63
2019-02-09T06:55:14.656Z,74.02
2019-02-09T06:57:45.114Z,73.92
2019-02-09T07:00:21.279Z,74.50
2019-02-09T07:02:54.543Z,74.54
2019-02-09T07:05:25.021Z,73.52
2019-02-09T07:07:55.600Z,72.23
2019-02-09T07:10:35.645Z,73.02
2019-02-09T07:13:03.542Z,74.88
2019-02-09T07:15:35.875Z,76.61
2019-02-09T07:18:08.301Z,77.72
2019-02-09T07:20:38.729Z,78.74
2019-02-09T07:23:10.604Z,79.40
2019-02-09T07:25:53.381Z,79.67
2019-02-09T07:28:17.484Z,79.47
2019-02-09T07:30:48.066Z,79.08
2019-02-09T07:33:31.378Z,78.90
2019-02-09T07:36:02.764Z,78.82
2019-02-09T07:38:40.968Z,78.62
2019-02-09T07:41:10.835Z,78.26
2019-02-09T07:43:41.167Z,77.63
2019-02-09T07:46:14.267Z,76.93
2019-02-09T07:48:45.849Z,75.76
2019-02-09T07:51:17.551Z,75.50
2019-02-09T07:53:50.142Z,75.56
2019-02-09T07:56:20.637Z,75.67
2019-02-09T07:58:52.248Z,75.42
2019-02-09T08:01:22.585Z,75.11
2019-02-09T08:03:53.157Z,75.05
2019-02-09T08:06:24.979Z,74.46
2019-02-09T08:09:02.373Z,73.67
2019-02-09T08:11:36.644Z,73.85
2019-02-09T08:14:08.514Z,73.86
2019-02-09T08:16:40.154Z,73.66
2019-02-09T08:19:13.663Z,73.56
2019-02-09T08:21:44.447Z,73.29
2019-02-09T08:24:16.799Z,72.86
2019-02-09T08:26:47.345Z,72.28
2019-02-09T08:29:19.986Z,72.06
2019-02-09T08:31:52.372Z,71.68
2019-02-09T08:34:28.269Z,71.49
2019-02-09T08:37:00.556Z,71.15
2019-02-09T08:39:34.651Z,71.61
2019-02-09T08:42:13.534Z,70.30
2019-02-09T08:44:44.685Z,68.99
2019-02-09T08:47:15.266Z,62.66
2019-02-09T08:49:46.742Z,56.93
2019-02-09T08:52:28.684Z,50.84
2019-02-09T08:55:00.876Z,51.01
2019-02-09T08:57:32.885Z,54.05
2019-02-09T09:00:03.336Z,53.14
2019-02-09T09:02:39.145Z,54.19
2019-02-09T09:05:16.214Z,55.84
2019-02-09T09:07:48.384Z,53.47
2019-02-09T09:10:20.206Z,52.21
2019-02-09T09:12:51.932Z,51.10
2019-02-09T09:15:25.790Z,50.47
2019-02-09T09:18:01.335Z,52.29
2019-02-09T09:20:37.580Z,55.18
2019-02-09T09:23:09.507Z,56.91
2019-02-09T09:25:40.110Z,58.52
2019-02-09T09:28:11.905Z,58.67
2019-02-09T09:30:48.868Z,58.70
2019-02-09T09:33:22.218Z,58.77
2019-02-09T09:35:52.757Z,58.44
2019-02-09T09:38:23.133Z,58.25
2019-02-09T09:40:53.856Z,57.70
2019-02-09T09:43:31.309Z,56.09
2019-02-09T09:46:04.776Z,55.35
2019-02-09T09:48:37.584Z,52.06
2019-02-09T09:51:09.482Z,52.72
2019-02-09T09:53:40.127Z,54.29
2019-02-09T09:56:10.510Z,50.01
2019-02-09T09:58:41.001Z,47.97
2019-02-09T10:01:13.913Z,47.91
2019-02-09T10:03:46.383Z,47.90
2019-02-09T10:06:18.586Z,47.30
2019-02-09T10:08:49.098Z,50.19
2019-02-09T10:11:22.017Z,48.71
2019-02-09T10:13:52.341Z,40.60
2019-02-09T10:16:23.196Z,40.15
2019-02-09T10:18:53.894Z,45.44
2019-02-09T10:21:24.224Z,47.72
2019-02-09T10:23:55.814Z,50.48
2019-02-09T10:26:34.775Z,52.68
2019-02-09T10:29:03.562Z,52.83
2019-02-09T10:31:33.890Z,54.88
2019-02-09T10:34:07.936Z,57.88
2019-02-09T10:36:38.658Z,57.88
2019-02-09T10:39:10.315Z,57.82
2019-02-09T10:41:41.115Z,57.03
2019-02-09T10:44:16.414Z,56.83
2019-02-09T10:47:08.100Z,57.21
2019-02-09T10:49:51.154Z,55.77
2019-02-09T10:52:11.935Z,59.73
2019-02-09T10:54:42.291Z,61.99
2019-02-09T10:57:14.217Z,63.35
2019-02-09T10:59:44.837Z,62.50
2019-02-09T11:02:16.931Z,59.99
2019-02-09T11:04:47.259Z,60.66
2019-02-09T11:07:28.061Z,59.67
2019-02-09T11:10:17.612Z,58.81
2019-02-09T11:12:32.963Z,57.79
2019-02-09T11:15:06.660Z,55.92
2019-02-09T11:17:37.120Z,56.32
2019-02-09T11:20:19.043Z,56.81
2019-02-09T11:22:52.071Z,56.26
2019-02-09T11:25:24.768Z,55.15
2019-02-09T11:27:55.162Z,56.19
2019-02-09T11:30:26.051Z,56.08
2019-02-09T11:33:03.409Z,57.08
2019-02-09T11:35:29.243Z,56.89
2019-02-09T11:38:04.618Z,56.29
2019-02-09T11:40:35.544Z,55.41
2019-02-09T11:43:07.177Z,55.14
2019-02-09T11:45:38.321Z,54.85
2019-02-09T11:48:38.133Z,54.87
2019-02-09T11:50:44.815Z,54.26
2019-02-09T11:53:15.375Z,53.57
2019-02-09T11:55:45.860Z,53.09
2019-02-09T11:58:16.567Z,53.06
2019-02-09T12:00:53.750Z,53.37
2019-02-09T12:03:24.257Z,51.93
2019-02-09T12:05:54.715Z,50.16
2019-02-09T12:08:28.341Z,50.83
2019-02-09T12:11:02.517Z,51.34
2019-02-09T12:13:34.819Z,52.01
2019-02-09T12:16:08.755Z,52.02
2019-02-09T12:18:39.297Z,52.26
2019-02-09T12:21:10.926Z,52.50
2019-02-09T12:23:44.112Z,52.94
2019-02-09T12:26:17.468Z,52.57
2019-02-09T12:28:49.513Z,52.72
2019-02-09T12:31:20.475Z,52.67
2019-02-09T12:33:54.247Z,54.42
2019-02-09T12:36:30.333Z,53.46
2019-02-09T12:39:02.702Z,53.70
2019-02-09T12:41:34.689Z,54.27
2019-02-09T12:44:09.236Z,55.31
2019-02-09T12:46:46.809Z,56.84
2019-02-09T12:49:24.002Z,57.26
2019-02-09T12:51:56.263Z,57.46
2019-02-09T12:54:28.648Z,57.77
2019-02-09T12:57:04.028Z,57.14
2019-02-09T12:59:34.505Z,56.82
2019-02-09T13:02:10.870Z,56.82
2019-02-09T13:04:43.730Z,56.70
2019-02-09T13:07:14.351Z,56.15
2019-02-09T13:09:52.731Z,56.07
2019-02-09T13:12:31.194Z,55.30
2019-02-09T13:15:14.449Z,55.24
2019-02-09T13:17:46.533Z,54.48
2019-02-09T13:20:20.368Z,54.91
2019-02-09T13:22:51.657Z,53.89
2019-02-09T13:25:26.475Z,53.54
2019-02-09T13:28:10.694Z,53.13
2019-02-09T13:30:44.797Z,52.87
2019-02-09T13:33:17.957Z,52.53
2019-02-09T13:35:49.013Z,51.67
2019-02-09T13:38:19.770Z,51.80
2019-02-09T13:40:56.815Z,50.81
2019-02-09T13:43:46.514Z,50.76
2019-02-09T13:46:05.581Z,50.07
2019-02-09T13:48:38.126Z,49.89
2019-02-09T13:51:08.995Z,50.18
2019-02-09T13:53:41.559Z,49.78
2019-02-09T13:56:13.608Z,50.03
2019-02-09T13:58:47.020Z,49.35
2019-02-09T14:01:26.393Z,49.41
2019-02-09T14:03:58.949Z,49.75
2019-02-09T14:06:29.707Z,49.93
2019-02-09T14:09:00.655Z,50.58
2019-02-09T14:11:31.044Z,51.30
2019-02-09T14:14:02.651Z,51.79
2019-02-09T14:16:38.601Z,52.54
2019-02-09T14:21:42.957Z,58.44
2019-02-09T14:24:15.746Z,65.44
2019-02-09T14:26:56.959Z,68.74
2019-02-09T14:29:27.600Z,71.24
2019-02-09T14:31:58.615Z,71.77
2019-02-09T14:34:39.387Z,70.76
2019-02-09T14:37:15.596Z,70.50
2019-02-09T14:39:52.847Z,70.14
2019-02-09T14:42:29.842Z,70.17
2019-02-09T14:44:58.397Z,68.82
2019-02-09T14:47:29.030Z,68.82
2019-02-09T14:50:12.930Z,69.08
2019-02-09T14:52:59.079Z,68.99
2019-02-09T14:55:33.501Z,68.50
2019-02-09T14:58:10.965Z,69.03
2019-02-09T15:00:54.575Z,69.22
2019-02-09T15:03:30.413Z,68.94
2019-02-09T15:05:59.013Z,69.60
2019-02-09T15:08:31.309Z,69.55
2019-02-09T15:11:01.984Z,69.94
2019-02-09T15:14:01.935Z,69.55
2019-02-09T15:16:40.282Z,69.30
2019-02-09T15:19:33.184Z,69.83
2019-02-09T15:22:00.073Z,69.73
2019-02-09T15:24:30.492Z,69.98
2019-02-09T15:27:01.577Z,69.14
2019-02-09T15:29:31.916Z,68.26
2019-02-09T15:32:04.284Z,67.96
2019-02-09T15:34:34.798Z,67.28
2019-02-09T15:37:06.897Z,67.18
2019-02-09T15:39:37.448Z,66.82
2019-02-09T15:42:10.261Z,66.64
2019-02-09T15:44:48.670Z,66.23
2019-02-09T15:47:23.567Z,65.53
2019-02-09T15:49:58.414Z,64.42
2019-02-09T15:52:31.783Z,63.47
2019-02-09T15:55:02.324Z,62.96
2019-02-09T15:57:33.085Z,63.03
2019-02-09T16:00:03.984Z,63.80
2019-02-09T16:02:36.135Z,63.25
2019-02-09T16:05:15.762Z,63.13
2019-02-09T16:07:46.672Z,61.81
2019-02-09T16:10:19.661Z,61.87
2019-02-09T16:12:50.108Z,62.26
2019-02-09T16:15:34.853Z,62.63
2019-02-09T16:18:13.003Z,62.84
2019-02-09T16:20:47.980Z,62.43
2019-02-09T16:23:18.717Z,62.67
2019-02-09T16:25:51.060Z,61.53
2019-02-09T16:28:21.716Z,61.45
2019-02-09T16:30:54.931Z,61.21
2019-02-09T16:34:05.460Z,61.17
2019-02-09T16:36:02.467Z,60.97
2019-02-09T16:38:33.433Z,61.03
2019-02-09T16:41:04.056Z,60.97
2019-02-09T16:43:43.577Z,60.68
2019-02-09T16:46:28.792Z,60.58
2019-02-09T16:49:02.774Z,61.08
2019-02-09T16:51:32.965Z,63.10
2019-02-09T16:54:05.513Z,62.69
2019-02-09T16:56:41.753Z,63.55
2019-02-09T16:59:25.613Z,63.39
2019-02-09T17:02:02.386Z,65.04
2019-02-09T17:04:34.987Z,68.82
2019-02-09T17:07:05.482Z,68.82
2019-02-09T17:09:39.668Z,68.79
2019-02-09T17:12:12.343Z,67.61
2019-02-09T17:14:46.077Z,68.87
2019-02-09T17:17:18.434Z,68.87
2019-02-09T17:19:49.035Z,68.52
2019-02-09T17:22:22.581Z,69.15
2019-02-09T17:24:53.321Z,69.34
2019-02-09T17:27:25.590Z,69.66
2019-02-09T17:29:57.292Z,69.03
2019-02-09T17:32:27.951Z,69.00
2019-02-09T17:34:58.705Z,69.11
2019-02-09T17:37:29.620Z,69.71
2019-02-09T17:40:16.754Z,70.04
2019-02-09T17:42:34.317Z,69.95
2019-02-09T17:45:05.884Z,69.89
2019-02-09T17:47:36.371Z,70.40
2019-02-09T17:50:08.437Z,70.66
2019-02-09T17:52:43.622Z,70.04
2019-02-09T17:55:16.221Z,69.52
2019-02-09T17:57:48.354Z,69.52
2019-02-09T18:00:23.083Z,69.76
2019-02-09T18:02:53.691Z,69.43
2019-02-09T18:05:24.540Z,69.31
2019-02-09T18:08:26.899Z,68.87
2019-02-09T18:10:34.025Z,68.38
2019-02-09T18:13:04.892Z,67.62
2019-02-09T18:15:36.026Z,68.04
2019-02-09T18:18:07.487Z,68.04
2019-02-09T18:20:42.916Z,67.52
2019-02-09T18:23:13.277Z,66.82
2019-02-09T18:25:43.968Z,66.42
2019-02-09T18:28:18.865Z,66.51
2019-02-09T18:30:51.324Z,66.37
2019-02-09T18:33:23.565Z,66.95
2019-02-09T18:35:54.028Z,67.17
2019-02-09T18:38:24.458Z,67.22
2019-02-09T18:40:56.767Z,66.76
2019-02-09T18:43:27.435Z,66.68
2019-02-09T18:45:59.181Z,66.17
2019-02-09T18:48:32.799Z,66.41
2019-02-09T18:51:04.424Z,66.51
2019-02-09T18:53:36.448Z,66.24
2019-02-09T18:56:15.212Z,66.48
2019-02-09T18:58:41.523Z,65.85
2019-02-09T19:01:12.066Z,65.26
2019-02-09T19:03:44.106Z,65.02
2019-02-09T19:06:22.672Z,65.16
2019-02-09T19:08:54.673Z,65.16
2019-02-09T19:11:25.322Z,65.20
2019-02-09T19:13:55.672Z,64.99
2019-02-09T19:16:31.603Z,64.61
2019-02-09T19:19:06.354Z,64.65
2019-02-09T19:21:49.513Z,65.07
2019-02-09T19:24:27.885Z,65.15
2019-02-09T19:26:55.012Z,65.60
2019-02-09T19:29:27.947Z,66.19
2019-02-09T19:32:02.713Z,66.34
2019-02-09T19:34:36.918Z,66.85
2019-02-09T19:37:10.988Z,66.85
2019-02-09T19:39:41.699Z,67.01
2019-02-09T19:42:12.317Z,67.33
2019-02-09T19:44:44.369Z,67.64
2019-02-09T19:47:22.505Z,67.52
2019-02-09T19:49:54.861Z,68.07
2019-02-09T19:52:29.964Z,68.35
2019-02-09T19:55:14.495Z,67.98
2019-02-09T19:57:37.701Z,67.98
2019-02-09T20:00:11.650Z,68.10
2019-02-09T20:02:45.050Z,68.17
2019-02-09T20:05:20.729Z,67.84
2019-02-09T20:07:52.496Z,67.45
2019-02-09T20:10:27.513Z,67.62
2019-02-09T20:12:59.900Z,67.86
2019-02-09T20:15:36.793Z,67.96
2019-02-09T20:18:10.563Z,67.61
2019-02-09T20:20:48.982Z,66.74
2019-02-09T20:23:19.659Z,65.98
2019-02-09T20:25:50.113Z,65.98
2019-02-09T20:28:26.519Z,66.19
2019-02-09T20:30:56.976Z,66.49
2019-02-09T20:33:37.122Z,66.96
2019-02-09T20:36:09.292Z,66.78
2019-02-09T20:38:40.038Z,66.62
2019-02-09T20:41:11.278Z,66.89
2019-02-09T20:43:42.680Z,67.36
2019-02-09T20:46:13.302Z,67.84
2019-02-09T20:48:43.857Z,67.95
2019-02-09T20:51:14.255Z,68.05
2019-02-09T20:53:48.730Z,67.75
2019-02-09T20:56:26.317Z,67.05
2019-02-09T20:58:56.742Z,66.27
2019-02-09T21:01:40.047Z,66.20
2019-02-09T21:04:04.640Z,66.05
2019-02-09T21:06:36.212Z,66.04
2019-02-09T21:09:08.807Z,66.51
2019-02-09T21:11:41.323Z,67.09
2019-02-09T21:14:21.438Z,67.06
2019-02-09T21:16:53.036Z,67.15
2019-02-09T21:19:24.608Z,67.21
2019-02-09T21:21:56.450Z,67.40
2019-02-09T21:24:30.102Z,67.57
2019-02-09T21:27:06.060Z,67.40
2019-02-09T21:29:38.531Z,67.13
2019-02-09T21:32:11.530Z,66.96
2019-02-09T21:34:42.223Z,67.09
2019-02-09T21:37:20.537Z,67.10
2019-02-09T21:39:53.597Z,67.08
2019-02-09T21:42:26.018Z,67.07
2019-02-09T21:44:57.989Z,66.67
2019-02-09T21:47:29.828Z,66.37
2019-02-09T21:50:04.243Z,66.00
2019-02-09T21:52:56.286Z,65.91
2019-02-09T21:55:36.521Z,65.65
2019-02-09T21:58:07.920Z,65.11
2019-02-09T22:00:44.884Z,64.74
2019-02-09T22:03:15.823Z,64.53
2019-02-09T22:05:51.805Z,64.28
2019-02-09T22:08:20.024Z,64.35
2019-02-09T22:10:50.632Z,64.68
2019-02-09T22:13:20.962Z,64.16
2019-02-09T22:15:51.853Z,64.21
2019-02-09T22:18:22.591Z,64.23
2019-02-09T22:20:54.464Z,64.50
2019-02-09T22:23:33.688Z,64.77
2019-02-09T22:26:04.116Z,64.70
2019-02-09T22:28:34.814Z,64.83
2019-02-09T22:31:05.959Z,65.01
2019-02-09T22:33:40.170Z,65.07
2019-02-09T22:36:14.869Z,64.71
2019-02-09T22:38:46.617Z,64.86
2019-02-09T22:41:19.023Z,64.57
2019-02-09T22:43:49.430Z,64.55
2019-02-09T22:46:23.135Z,64.39
2019-02-09T22:48:54.888Z,64.51
2019-02-09T22:51:30.376Z,64.81
2019-02-09T22:54:03.850Z,65.11
2019-02-09T22:56:34.479Z,65.06
2019-02-09T22:59:05.292Z,65.22
2019-02-09T23:01:45.273Z,65.33
2019-02-09T23:04:42.763Z,65.26
2019-02-09T23:07:19.163Z,65.56
2019-02-09T23:09:56.171Z,65.73
2019-02-09T23:12:33.230Z,65.86
2019-02-09T23:15:24.005Z,66.03
2019-02-09T23:20:47.914Z,65.80
2019-02-09T23:23:24.011Z,66.03
2019-02-09T23:25:56.627Z,66.09
2019-02-09T23:28:27.058Z,66.17
2019-02-09T23:30:57.614Z,66.13
2019-02-09T23:33:29.138Z,66.06
2019-02-09T23:36:02.872Z,66.18
2019-02-09T23:38:33.521Z,66.19
2019-02-09T23:41:08.854Z,66.07
2019-02-09T23:43:41.843Z,65.99
2019-02-09T23:46:16.222Z,65.95
2019-02-09T23:48:48.170Z,66.01
2019-02-09T23:51:18.912Z,66.26
2019-02-09T23:53:49.228Z,66.08
2019-02-09T23:56:23.908Z,66.04
2019-02-09T23:58:54.192Z,66.04
